<?xml version="1.0" encoding="UTF-8" standalone="no" ?>
<gpx xmlns="http://www.topografix.com/GPX/1/1" xmlns:xsi="http://www.w3.org/2001/XMLSchema-instance" xsi:schemaLocation="http://www.topografix.com/GPX/1/1 http://www.topografix.com/GPX/1/1/gpx.xsd" version="1.1" creator="VisuGPX - https://www.visugpx.com">
  <metadata>
    <name>Le Puy en Velay</name>
  </metadata>
  <trk>
    <name><![CDATA[11989478-Le Puy en Velay]]></name>
    <trkseg>
      <trkpt lat="45.04162" lon="3.88558">
        <ele>625</ele>
        <time>2020-09-06T09:57:21Z</time>
      </trkpt>
      <trkpt lat="45.04174" lon="3.88545">
        <ele>626</ele>
        <time>2020-09-06T09:57:41Z</time>
      </trkpt>
      <trkpt lat="45.04177" lon="3.88531">
        <ele>626</ele>
        <time>2020-09-06T09:57:55Z</time>
      </trkpt>
      <trkpt lat="45.04195" lon="3.88535">
        <ele>627</ele>
        <time>2020-09-06T09:58:19Z</time>
      </trkpt>
      <trkpt lat="45.04213" lon="3.88526">
        <ele>628</ele>
        <time>2020-09-06T09:58:45Z</time>
      </trkpt>
      <trkpt lat="45.04209" lon="3.88492">
        <ele>628</ele>
        <time>2020-09-06T09:59:17Z</time>
      </trkpt>
      <trkpt lat="45.04208" lon="3.88472">
        <ele>629</ele>
        <time>2020-09-06T09:59:36Z</time>
      </trkpt>
      <trkpt lat="45.04208" lon="3.88414">
        <ele>631</ele>
        <time>2020-09-06T10:00:31Z</time>
      </trkpt>
      <trkpt lat="45.0421" lon="3.88382">
        <ele>631</ele>
        <time>2020-09-06T10:01:01Z</time>
      </trkpt>
      <trkpt lat="45.04288" lon="3.88401">
        <ele>636</ele>
        <time>2020-09-06T10:02:47Z</time>
      </trkpt>
      <trkpt lat="45.04296" lon="3.884">
        <ele>636</ele>
        <time>2020-09-06T10:02:57Z</time>
      </trkpt>
      <trkpt lat="45.04315" lon="3.88396">
        <ele>638</ele>
        <time>2020-09-06T10:03:23Z</time>
      </trkpt>
      <trkpt lat="45.04328" lon="3.88361">
        <ele>640</ele>
        <time>2020-09-06T10:04:00Z</time>
      </trkpt>
      <trkpt lat="45.04332" lon="3.88323">
        <ele>641</ele>
        <time>2020-09-06T10:04:37Z</time>
      </trkpt>
      <trkpt lat="45.04347" lon="3.88261">
        <ele>644</ele>
        <time>2020-09-06T10:05:38Z</time>
      </trkpt>
      <trkpt lat="45.04392" lon="3.88288">
        <ele>647</ele>
        <time>2020-09-06T10:06:44Z</time>
      </trkpt>
      <trkpt lat="45.04405" lon="3.88284">
        <ele>648</ele>
        <time>2020-09-06T10:07:01Z</time>
      </trkpt>
      <trkpt lat="45.04426" lon="3.88278">
        <ele>649</ele>
        <time>2020-09-06T10:07:30Z</time>
      </trkpt>
      <trkpt lat="45.04442" lon="3.88272">
        <ele>649</ele>
        <time>2020-09-06T10:07:52Z</time>
      </trkpt>
      <trkpt lat="45.04473" lon="3.88269">
        <ele>650</ele>
        <time>2020-09-06T10:08:34Z</time>
      </trkpt>
      <trkpt lat="45.04486" lon="3.88266">
        <ele>650</ele>
        <time>2020-09-06T10:08:51Z</time>
      </trkpt>
      <trkpt lat="45.04534" lon="3.88251">
        <ele>650</ele>
        <time>2020-09-06T10:09:57Z</time>
      </trkpt>
      <trkpt lat="45.04546" lon="3.8828">
        <ele>654</ele>
        <time>2020-09-06T10:10:28Z</time>
      </trkpt>
      <trkpt lat="45.04548" lon="3.88286">
        <ele>655</ele>
        <time>2020-09-06T10:10:35Z</time>
      </trkpt>
      <trkpt lat="45.04553" lon="3.88338">
        <ele>662</ele>
        <time>2020-09-06T10:11:24Z</time>
      </trkpt>
      <trkpt lat="45.04556" lon="3.88388">
        <ele>671</ele>
        <time>2020-09-06T10:12:11Z</time>
      </trkpt>
      <trkpt lat="45.04558" lon="3.88434">
        <ele>679</ele>
        <time>2020-09-06T10:12:55Z</time>
      </trkpt>
      <trkpt lat="45.04558" lon="3.88464">
        <ele>684</ele>
        <time>2020-09-06T10:13:23Z</time>
      </trkpt>
      <trkpt lat="45.04559" lon="3.88483">
        <ele>687</ele>
        <time>2020-09-06T10:13:41Z</time>
      </trkpt>
      <trkpt lat="45.04558" lon="3.88447">
        <ele>681</ele>
        <time>2020-09-06T10:14:15Z</time>
      </trkpt>
      <trkpt lat="45.04558" lon="3.88421">
        <ele>678</ele>
        <time>2020-09-06T10:14:40Z</time>
      </trkpt>
      <trkpt lat="45.04558" lon="3.88417">
        <ele>677</ele>
        <time>2020-09-06T10:14:43Z</time>
      </trkpt>
      <trkpt lat="45.04571" lon="3.88418">
        <ele>679</ele>
        <time>2020-09-06T10:15:01Z</time>
      </trkpt>
      <trkpt lat="45.04578" lon="3.88419">
        <ele>680</ele>
        <time>2020-09-06T10:15:10Z</time>
      </trkpt>
      <trkpt lat="45.04578" lon="3.8843">
        <ele>681</ele>
        <time>2020-09-06T10:15:21Z</time>
      </trkpt>
      <trkpt lat="45.04578" lon="3.88419">
        <ele>680</ele>
        <time>2020-09-06T10:15:31Z</time>
      </trkpt>
      <trkpt lat="45.04559" lon="3.88417">
        <ele>677</ele>
        <time>2020-09-06T10:15:56Z</time>
      </trkpt>
      <trkpt lat="45.04556" lon="3.8839">
        <ele>672</ele>
        <time>2020-09-06T10:16:22Z</time>
      </trkpt>
      <trkpt lat="45.04613" lon="3.88394">
        <ele>675</ele>
        <time>2020-09-06T10:17:38Z</time>
      </trkpt>
      <trkpt lat="45.04623" lon="3.88357">
        <ele>668</ele>
        <time>2020-09-06T10:18:16Z</time>
      </trkpt>
      <trkpt lat="45.04659" lon="3.88351">
        <ele>667</ele>
        <time>2020-09-06T10:19:04Z</time>
      </trkpt>
      <trkpt lat="45.04691" lon="3.8834">
        <ele>664</ele>
        <time>2020-09-06T10:19:48Z</time>
      </trkpt>
      <trkpt lat="45.04704" lon="3.88333">
        <ele>662</ele>
        <time>2020-09-06T10:20:06Z</time>
      </trkpt>
      <trkpt lat="45.0471" lon="3.88308">
        <ele>657</ele>
        <time>2020-09-06T10:20:31Z</time>
      </trkpt>
      <trkpt lat="45.04757" lon="3.88302">
        <ele>653</ele>
        <time>2020-09-06T10:21:34Z</time>
      </trkpt>
      <trkpt lat="45.04837" lon="3.88297">
        <ele>643</ele>
        <time>2020-09-06T10:23:21Z</time>
      </trkpt>
      <trkpt lat="45.04893" lon="3.88295">
        <ele>636</ele>
        <time>2020-09-06T10:24:36Z</time>
      </trkpt>
      <trkpt lat="45.04905" lon="3.88293">
        <ele>634</ele>
        <time>2020-09-06T10:24:52Z</time>
      </trkpt>
      <trkpt lat="45.04946" lon="3.88298">
        <ele>630</ele>
        <time>2020-09-06T10:25:47Z</time>
      </trkpt>
      <trkpt lat="45.04956" lon="3.88297">
        <ele>629</ele>
        <time>2020-09-06T10:26:00Z</time>
      </trkpt>
      <trkpt lat="45.04971" lon="3.88286">
        <ele>627</ele>
        <time>2020-09-06T10:26:23Z</time>
      </trkpt>
      <trkpt lat="45.04978" lon="3.88291">
        <ele>627</ele>
        <time>2020-09-06T10:26:33Z</time>
      </trkpt>
      <trkpt lat="45.04985" lon="3.88301">
        <ele>626</ele>
        <time>2020-09-06T10:26:47Z</time>
      </trkpt>
      <trkpt lat="45.0499" lon="3.88301">
        <ele>625</ele>
        <time>2020-09-06T10:26:53Z</time>
      </trkpt>
      <trkpt lat="45.04993" lon="3.88297">
        <ele>625</ele>
        <time>2020-09-06T10:26:59Z</time>
      </trkpt>
      <trkpt lat="45.04994" lon="3.8829">
        <ele>625</ele>
        <time>2020-09-06T10:27:06Z</time>
      </trkpt>
      <trkpt lat="45.05" lon="3.88286">
        <ele>625</ele>
        <time>2020-09-06T10:27:14Z</time>
      </trkpt>
      <trkpt lat="45.05008" lon="3.88277">
        <ele>624</ele>
        <time>2020-09-06T10:27:28Z</time>
      </trkpt>
      <trkpt lat="45.05001" lon="3.88283">
        <ele>624</ele>
        <time>2020-09-06T10:27:39Z</time>
      </trkpt>
      <trkpt lat="45.04997" lon="3.8828">
        <ele>625</ele>
        <time>2020-09-06T10:27:45Z</time>
      </trkpt>
      <trkpt lat="45.05001" lon="3.88273">
        <ele>625</ele>
        <time>2020-09-06T10:27:54Z</time>
      </trkpt>
      <trkpt lat="45.04995" lon="3.88275">
        <ele>625</ele>
        <time>2020-09-06T10:28:02Z</time>
      </trkpt>
      <trkpt lat="45.04993" lon="3.88272">
        <ele>625</ele>
        <time>2020-09-06T10:28:06Z</time>
      </trkpt>
      <trkpt lat="45.04993" lon="3.88265">
        <ele>625</ele>
        <time>2020-09-06T10:28:12Z</time>
      </trkpt>
      <trkpt lat="45.04999" lon="3.88251">
        <ele>625</ele>
        <time>2020-09-06T10:28:28Z</time>
      </trkpt>
      <trkpt lat="45.04992" lon="3.88265">
        <ele>625</ele>
        <time>2020-09-06T10:28:44Z</time>
      </trkpt>
      <trkpt lat="45.04991" lon="3.88272">
        <ele>625</ele>
        <time>2020-09-06T10:28:51Z</time>
      </trkpt>
      <trkpt lat="45.04994" lon="3.88277">
        <ele>625</ele>
        <time>2020-09-06T10:28:57Z</time>
      </trkpt>
      <trkpt lat="45.05" lon="3.88274">
        <ele>625</ele>
        <time>2020-09-06T10:29:05Z</time>
      </trkpt>
      <trkpt lat="45.04997" lon="3.8828">
        <ele>625</ele>
        <time>2020-09-06T10:29:12Z</time>
      </trkpt>
      <trkpt lat="45.05002" lon="3.88282">
        <ele>624</ele>
        <time>2020-09-06T10:29:19Z</time>
      </trkpt>
      <trkpt lat="45.05009" lon="3.88275">
        <ele>624</ele>
        <time>2020-09-06T10:29:31Z</time>
      </trkpt>
      <trkpt lat="45.05" lon="3.88287">
        <ele>625</ele>
        <time>2020-09-06T10:29:47Z</time>
      </trkpt>
      <trkpt lat="45.04994" lon="3.8829">
        <ele>625</ele>
        <time>2020-09-06T10:29:56Z</time>
      </trkpt>
      <trkpt lat="45.04993" lon="3.88297">
        <ele>625</ele>
        <time>2020-09-06T10:30:02Z</time>
      </trkpt>
      <trkpt lat="45.04991" lon="3.88302">
        <ele>625</ele>
        <time>2020-09-06T10:30:08Z</time>
      </trkpt>
      <trkpt lat="45.04985" lon="3.88301">
        <ele>626</ele>
        <time>2020-09-06T10:30:16Z</time>
      </trkpt>
      <trkpt lat="45.04977" lon="3.88287">
        <ele>627</ele>
        <time>2020-09-06T10:30:33Z</time>
      </trkpt>
      <trkpt lat="45.04972" lon="3.88287">
        <ele>627</ele>
        <time>2020-09-06T10:30:39Z</time>
      </trkpt>
      <trkpt lat="45.04957" lon="3.88296">
        <ele>629</ele>
        <time>2020-09-06T10:31:01Z</time>
      </trkpt>
      <trkpt lat="45.04942" lon="3.88297">
        <ele>630</ele>
        <time>2020-09-06T10:31:21Z</time>
      </trkpt>
      <trkpt lat="45.0492" lon="3.88294">
        <ele>632</ele>
        <time>2020-09-06T10:31:51Z</time>
      </trkpt>
      <trkpt lat="45.04904" lon="3.88294">
        <ele>634</ele>
        <time>2020-09-06T10:32:12Z</time>
      </trkpt>
      <trkpt lat="45.04769" lon="3.88302">
        <ele>651</ele>
        <time>2020-09-06T10:35:12Z</time>
      </trkpt>
      <trkpt lat="45.0471" lon="3.88308">
        <ele>657</ele>
        <time>2020-09-06T10:36:31Z</time>
      </trkpt>
      <trkpt lat="45.04703" lon="3.88334">
        <ele>662</ele>
        <time>2020-09-06T10:36:57Z</time>
      </trkpt>
      <trkpt lat="45.04696" lon="3.88336">
        <ele>663</ele>
        <time>2020-09-06T10:37:07Z</time>
      </trkpt>
      <trkpt lat="45.04657" lon="3.88353">
        <ele>667</ele>
        <time>2020-09-06T10:38:01Z</time>
      </trkpt>
      <trkpt lat="45.04629" lon="3.88357">
        <ele>668</ele>
        <time>2020-09-06T10:38:39Z</time>
      </trkpt>
      <trkpt lat="45.04623" lon="3.88358">
        <ele>668</ele>
        <time>2020-09-06T10:38:47Z</time>
      </trkpt>
      <trkpt lat="45.04619" lon="3.88375">
        <ele>671</ele>
        <time>2020-09-06T10:39:04Z</time>
      </trkpt>
      <trkpt lat="45.04641" lon="3.88378">
        <ele>672</ele>
        <time>2020-09-06T10:39:33Z</time>
      </trkpt>
      <trkpt lat="45.04649" lon="3.8838">
        <ele>672</ele>
        <time>2020-09-06T10:39:44Z</time>
      </trkpt>
      <trkpt lat="45.04649" lon="3.88393">
        <ele>674</ele>
        <time>2020-09-06T10:39:57Z</time>
      </trkpt>
      <trkpt lat="45.04646" lon="3.88407">
        <ele>677</ele>
        <time>2020-09-06T10:40:10Z</time>
      </trkpt>
      <trkpt lat="45.04642" lon="3.88422">
        <ele>680</ele>
        <time>2020-09-06T10:40:25Z</time>
      </trkpt>
      <trkpt lat="45.04641" lon="3.88432">
        <ele>682</ele>
        <time>2020-09-06T10:40:35Z</time>
      </trkpt>
      <trkpt lat="45.04633" lon="3.8844">
        <ele>684</ele>
        <time>2020-09-06T10:40:48Z</time>
      </trkpt>
      <trkpt lat="45.04636" lon="3.88444">
        <ele>685</ele>
        <time>2020-09-06T10:40:54Z</time>
      </trkpt>
      <trkpt lat="45.04636" lon="3.88455">
        <ele>688</ele>
        <time>2020-09-06T10:41:04Z</time>
      </trkpt>
      <trkpt lat="45.04622" lon="3.88463">
        <ele>689</ele>
        <time>2020-09-06T10:41:24Z</time>
      </trkpt>
      <trkpt lat="45.04614" lon="3.88469">
        <ele>690</ele>
        <time>2020-09-06T10:41:36Z</time>
      </trkpt>
      <trkpt lat="45.04609" lon="3.88475">
        <ele>691</ele>
        <time>2020-09-06T10:41:45Z</time>
      </trkpt>
      <trkpt lat="45.04608" lon="3.88505">
        <ele>695</ele>
        <time>2020-09-06T10:42:13Z</time>
      </trkpt>
      <trkpt lat="45.04641" lon="3.88509">
        <ele>698</ele>
        <time>2020-09-06T10:42:57Z</time>
      </trkpt>
      <trkpt lat="45.04691" lon="3.88507">
        <ele>703</ele>
        <time>2020-09-06T10:44:04Z</time>
      </trkpt>
      <trkpt lat="45.04699" lon="3.88508">
        <ele>704</ele>
        <time>2020-09-06T10:44:15Z</time>
      </trkpt>
      <trkpt lat="45.04694" lon="3.88516">
        <ele>704</ele>
        <time>2020-09-06T10:44:25Z</time>
      </trkpt>
      <trkpt lat="45.04682" lon="3.88522">
        <ele>703</ele>
        <time>2020-09-06T10:44:42Z</time>
      </trkpt>
      <trkpt lat="45.04673" lon="3.88533">
        <ele>702</ele>
        <time>2020-09-06T10:44:58Z</time>
      </trkpt>
      <trkpt lat="45.04664" lon="3.88543">
        <ele>701</ele>
        <time>2020-09-06T10:45:13Z</time>
      </trkpt>
      <trkpt lat="45.04664" lon="3.8855">
        <ele>701</ele>
        <time>2020-09-06T10:45:20Z</time>
      </trkpt>
      <trkpt lat="45.04671" lon="3.88552">
        <ele>702</ele>
        <time>2020-09-06T10:45:29Z</time>
      </trkpt>
      <trkpt lat="45.04692" lon="3.88537">
        <ele>704</ele>
        <time>2020-09-06T10:46:01Z</time>
      </trkpt>
      <trkpt lat="45.04705" lon="3.88522">
        <ele>705</ele>
        <time>2020-09-06T10:46:23Z</time>
      </trkpt>
      <trkpt lat="45.04723" lon="3.88506">
        <ele>706</ele>
        <time>2020-09-06T10:46:51Z</time>
      </trkpt>
      <trkpt lat="45.04729" lon="3.88501">
        <ele>706</ele>
        <time>2020-09-06T10:47:01Z</time>
      </trkpt>
      <trkpt lat="45.0473" lon="3.88507">
        <ele>706</ele>
        <time>2020-09-06T10:47:06Z</time>
      </trkpt>
      <trkpt lat="45.04738" lon="3.88504">
        <ele>707</ele>
        <time>2020-09-06T10:47:18Z</time>
      </trkpt>
      <trkpt lat="45.04735" lon="3.88508">
        <ele>707</ele>
        <time>2020-09-06T10:47:23Z</time>
      </trkpt>
      <trkpt lat="45.0474" lon="3.88514">
        <ele>707</ele>
        <time>2020-09-06T10:47:32Z</time>
      </trkpt>
      <trkpt lat="45.04737" lon="3.88505">
        <ele>707</ele>
        <time>2020-09-06T10:47:41Z</time>
      </trkpt>
      <trkpt lat="45.04731" lon="3.88505">
        <ele>707</ele>
        <time>2020-09-06T10:47:49Z</time>
      </trkpt>
      <trkpt lat="45.04728" lon="3.88501">
        <ele>706</ele>
        <time>2020-09-06T10:47:55Z</time>
      </trkpt>
      <trkpt lat="45.04704" lon="3.88524">
        <ele>705</ele>
        <time>2020-09-06T10:48:33Z</time>
      </trkpt>
      <trkpt lat="45.0469" lon="3.88541">
        <ele>704</ele>
        <time>2020-09-06T10:48:58Z</time>
      </trkpt>
      <trkpt lat="45.04671" lon="3.88552">
        <ele>702</ele>
        <time>2020-09-06T10:49:25Z</time>
      </trkpt>
      <trkpt lat="45.04666" lon="3.8855">
        <ele>701</ele>
        <time>2020-09-06T10:49:32Z</time>
      </trkpt>
      <trkpt lat="45.04664" lon="3.88543">
        <ele>701</ele>
        <time>2020-09-06T10:49:39Z</time>
      </trkpt>
      <trkpt lat="45.04667" lon="3.8854">
        <ele>702</ele>
        <time>2020-09-06T10:49:44Z</time>
      </trkpt>
      <trkpt lat="45.04685" lon="3.88522">
        <ele>703</ele>
        <time>2020-09-06T10:50:14Z</time>
      </trkpt>
      <trkpt lat="45.04694" lon="3.88516">
        <ele>704</ele>
        <time>2020-09-06T10:50:27Z</time>
      </trkpt>
      <trkpt lat="45.04698" lon="3.88512">
        <ele>704</ele>
        <time>2020-09-06T10:50:34Z</time>
      </trkpt>
      <trkpt lat="45.04695" lon="3.88507">
        <ele>703</ele>
        <time>2020-09-06T10:50:40Z</time>
      </trkpt>
      <trkpt lat="45.04684" lon="3.88507">
        <ele>703</ele>
        <time>2020-09-06T10:50:54Z</time>
      </trkpt>
      <trkpt lat="45.04664" lon="3.88507">
        <ele>701</ele>
        <time>2020-09-06T10:51:21Z</time>
      </trkpt>
      <trkpt lat="45.04616" lon="3.88505">
        <ele>696</ele>
        <time>2020-09-06T10:52:25Z</time>
      </trkpt>
      <trkpt lat="45.04596" lon="3.88504">
        <ele>694</ele>
        <time>2020-09-06T10:52:52Z</time>
      </trkpt>
      <trkpt lat="45.04595" lon="3.88499">
        <ele>694</ele>
        <time>2020-09-06T10:52:57Z</time>
      </trkpt>
      <trkpt lat="45.04595" lon="3.88489">
        <ele>692</ele>
        <time>2020-09-06T10:53:06Z</time>
      </trkpt>
      <trkpt lat="45.04596" lon="3.88504">
        <ele>694</ele>
        <time>2020-09-06T10:53:20Z</time>
      </trkpt>
      <trkpt lat="45.04582" lon="3.88503">
        <ele>692</ele>
        <time>2020-09-06T10:53:39Z</time>
      </trkpt>
      <trkpt lat="45.04576" lon="3.88505">
        <ele>691</ele>
        <time>2020-09-06T10:53:47Z</time>
      </trkpt>
      <trkpt lat="45.04573" lon="3.88533">
        <ele>688</ele>
        <time>2020-09-06T10:54:14Z</time>
      </trkpt>
      <trkpt lat="45.04545" lon="3.88535">
        <ele>683</ele>
        <time>2020-09-06T10:54:51Z</time>
      </trkpt>
      <trkpt lat="45.04541" lon="3.88516">
        <ele>685</ele>
        <time>2020-09-06T10:55:10Z</time>
      </trkpt>
      <trkpt lat="45.0452" lon="3.88514">
        <ele>681</ele>
        <time>2020-09-06T10:55:38Z</time>
      </trkpt>
      <trkpt lat="45.04539" lon="3.88515">
        <ele>684</ele>
        <time>2020-09-06T10:56:04Z</time>
      </trkpt>
      <trkpt lat="45.04545" lon="3.88535">
        <ele>683</ele>
        <time>2020-09-06T10:56:24Z</time>
      </trkpt>
      <trkpt lat="45.04573" lon="3.88535">
        <ele>688</ele>
        <time>2020-09-06T10:57:01Z</time>
      </trkpt>
      <trkpt lat="45.04571" lon="3.88541">
        <ele>687</ele>
        <time>2020-09-06T10:57:08Z</time>
      </trkpt>
      <trkpt lat="45.0458" lon="3.88584">
        <ele>683</ele>
        <time>2020-09-06T10:57:50Z</time>
      </trkpt>
      <trkpt lat="45.04581" lon="3.886">
        <ele>682</ele>
        <time>2020-09-06T10:58:05Z</time>
      </trkpt>
      <trkpt lat="45.04574" lon="3.88605">
        <ele>681</ele>
        <time>2020-09-06T10:58:16Z</time>
      </trkpt>
      <trkpt lat="45.04549" lon="3.88617">
        <ele>675</ele>
        <time>2020-09-06T10:58:51Z</time>
      </trkpt>
      <trkpt lat="45.04544" lon="3.8862">
        <ele>674</ele>
        <time>2020-09-06T10:58:58Z</time>
      </trkpt>
      <trkpt lat="45.04546" lon="3.88635">
        <ele>673</ele>
        <time>2020-09-06T10:59:12Z</time>
      </trkpt>
      <trkpt lat="45.04544" lon="3.88662">
        <ele>670</ele>
        <time>2020-09-06T10:59:38Z</time>
      </trkpt>
      <trkpt lat="45.04541" lon="3.88678">
        <ele>667</ele>
        <time>2020-09-06T10:59:54Z</time>
      </trkpt>
      <trkpt lat="45.04538" lon="3.88685">
        <ele>665</ele>
        <time>2020-09-06T11:00:01Z</time>
      </trkpt>
      <trkpt lat="45.04524" lon="3.88689">
        <ele>662</ele>
        <time>2020-09-06T11:00:20Z</time>
      </trkpt>
      <trkpt lat="45.04515" lon="3.88687">
        <ele>661</ele>
        <time>2020-09-06T11:00:33Z</time>
      </trkpt>
      <trkpt lat="45.04513" lon="3.88669">
        <ele>663</ele>
        <time>2020-09-06T11:00:50Z</time>
      </trkpt>
      <trkpt lat="45.04509" lon="3.88656">
        <ele>664</ele>
        <time>2020-09-06T11:01:03Z</time>
      </trkpt>
      <trkpt lat="45.04503" lon="3.88662">
        <ele>662</ele>
        <time>2020-09-06T11:01:13Z</time>
      </trkpt>
      <trkpt lat="45.04496" lon="3.88673">
        <ele>659</ele>
        <time>2020-09-06T11:01:27Z</time>
      </trkpt>
      <trkpt lat="45.04493" lon="3.88674">
        <ele>659</ele>
        <time>2020-09-06T11:01:31Z</time>
      </trkpt>
      <trkpt lat="45.04488" lon="3.88679">
        <ele>657</ele>
        <time>2020-09-06T11:01:39Z</time>
      </trkpt>
      <trkpt lat="45.04479" lon="3.88684">
        <ele>655</ele>
        <time>2020-09-06T11:01:52Z</time>
      </trkpt>
      <trkpt lat="45.04478" lon="3.88684">
        <ele>654</ele>
        <time>2020-09-06T11:01:53Z</time>
      </trkpt>
      <trkpt lat="45.04481" lon="3.88698">
        <ele>653</ele>
        <time>2020-09-06T11:02:07Z</time>
      </trkpt>
      <trkpt lat="45.04481" lon="3.88709">
        <ele>652</ele>
        <time>2020-09-06T11:02:18Z</time>
      </trkpt>
      <trkpt lat="45.04476" lon="3.88719">
        <ele>650</ele>
        <time>2020-09-06T11:02:29Z</time>
      </trkpt>
      <trkpt lat="45.04484" lon="3.88735">
        <ele>650</ele>
        <time>2020-09-06T11:02:48Z</time>
      </trkpt>
      <trkpt lat="45.04473" lon="3.88737">
        <ele>648</ele>
        <time>2020-09-06T11:03:02Z</time>
      </trkpt>
      <trkpt lat="45.04467" lon="3.88742">
        <ele>646</ele>
        <time>2020-09-06T11:03:12Z</time>
      </trkpt>
      <trkpt lat="45.04464" lon="3.8875">
        <ele>645</ele>
        <time>2020-09-06T11:03:20Z</time>
      </trkpt>
      <trkpt lat="45.04458" lon="3.88761">
        <ele>643</ele>
        <time>2020-09-06T11:03:33Z</time>
      </trkpt>
      <trkpt lat="45.04452" lon="3.88757">
        <ele>642</ele>
        <time>2020-09-06T11:03:42Z</time>
      </trkpt>
      <trkpt lat="45.04433" lon="3.88781">
        <ele>637</ele>
        <time>2020-09-06T11:04:16Z</time>
      </trkpt>
      <trkpt lat="45.04403" lon="3.88805">
        <ele>632</ele>
        <time>2020-09-06T11:05:02Z</time>
      </trkpt>
      <trkpt lat="45.0437" lon="3.88813">
        <ele>628</ele>
        <time>2020-09-06T11:05:47Z</time>
      </trkpt>
      <trkpt lat="45.04364" lon="3.88813">
        <ele>627</ele>
        <time>2020-09-06T11:05:55Z</time>
      </trkpt>
      <trkpt lat="45.04378" lon="3.88837">
        <ele>627</ele>
        <time>2020-09-06T11:06:24Z</time>
      </trkpt>
      <trkpt lat="45.04399" lon="3.88889">
        <ele>627</ele>
        <time>2020-09-06T11:07:21Z</time>
      </trkpt>
      <trkpt lat="45.04408" lon="3.88919">
        <ele>626</ele>
        <time>2020-09-06T11:07:51Z</time>
      </trkpt>
      <trkpt lat="45.04414" lon="3.88932">
        <ele>625</ele>
        <time>2020-09-06T11:08:06Z</time>
      </trkpt>
      <trkpt lat="45.04327" lon="3.88873">
        <ele>623</ele>
        <time>2020-09-06T11:10:15Z</time>
      </trkpt>
      <trkpt lat="45.0434" lon="3.88839">
        <ele>623</ele>
        <time>2020-09-06T11:10:51Z</time>
      </trkpt>
      <trkpt lat="45.04335" lon="3.88819">
        <ele>624</ele>
        <time>2020-09-06T11:11:11Z</time>
      </trkpt>
      <trkpt lat="45.04326" lon="3.88794">
        <ele>626</ele>
        <time>2020-09-06T11:11:38Z</time>
      </trkpt>
      <trkpt lat="45.04322" lon="3.88784">
        <ele>626</ele>
        <time>2020-09-06T11:11:49Z</time>
      </trkpt>
      <trkpt lat="45.04324" lon="3.8877">
        <ele>628</ele>
        <time>2020-09-06T11:12:02Z</time>
      </trkpt>
      <trkpt lat="45.04324" lon="3.88751">
        <ele>629</ele>
        <time>2020-09-06T11:12:20Z</time>
      </trkpt>
      <trkpt lat="45.04318" lon="3.88698">
        <ele>631</ele>
        <time>2020-09-06T11:13:11Z</time>
      </trkpt>
      <trkpt lat="45.04304" lon="3.88594">
        <ele>634</ele>
        <time>2020-09-06T11:14:50Z</time>
      </trkpt>
      <trkpt lat="45.04297" lon="3.88546">
        <ele>635</ele>
        <time>2020-09-06T11:15:37Z</time>
      </trkpt>
      <trkpt lat="45.04266" lon="3.88549">
        <ele>631</ele>
        <time>2020-09-06T11:16:18Z</time>
      </trkpt>
      <trkpt lat="45.04238" lon="3.88551">
        <ele>628</ele>
        <time>2020-09-06T11:16:55Z</time>
      </trkpt>
      <trkpt lat="45.04215" lon="3.88555">
        <ele>627</ele>
        <time>2020-09-06T11:17:26Z</time>
      </trkpt>
      <trkpt lat="45.04213" lon="3.88526">
        <ele>628</ele>
        <time>2020-09-06T11:17:54Z</time>
      </trkpt>
      <trkpt lat="45.04196" lon="3.88535">
        <ele>627</ele>
        <time>2020-09-06T11:18:18Z</time>
      </trkpt>
      <trkpt lat="45.04187" lon="3.88533">
        <ele>626</ele>
        <time>2020-09-06T11:18:30Z</time>
      </trkpt>
      <trkpt lat="45.04186" lon="3.88533">
        <ele>626</ele>
        <time>2020-09-06T11:18:32Z</time>
      </trkpt>
      <trkpt lat="45.0419" lon="3.88488">
        <ele>627</ele>
        <time>2020-09-06T11:19:14Z</time>
      </trkpt>
      <trkpt lat="45.04193" lon="3.88438">
        <ele>629</ele>
        <time>2020-09-06T11:20:02Z</time>
      </trkpt>
      <trkpt lat="45.04184" lon="3.88424">
        <ele>629</ele>
        <time>2020-09-06T11:20:20Z</time>
      </trkpt>
      <trkpt lat="45.04143" lon="3.8841">
        <ele>628</ele>
        <time>2020-09-06T11:21:16Z</time>
      </trkpt>
      <trkpt lat="45.04114" lon="3.88402">
        <ele>628</ele>
        <time>2020-09-06T11:21:55Z</time>
      </trkpt>
      <trkpt lat="45.041" lon="3.884">
        <ele>628</ele>
        <time>2020-09-06T11:22:14Z</time>
      </trkpt>
      <trkpt lat="45.04105" lon="3.88335">
        <ele>629</ele>
        <time>2020-09-06T11:23:16Z</time>
      </trkpt>
      <trkpt lat="45.04112" lon="3.88272">
        <ele>632</ele>
        <time>2020-09-06T11:24:16Z</time>
      </trkpt>
      <trkpt lat="45.04062" lon="3.88263">
        <ele>632</ele>
        <time>2020-09-06T11:25:23Z</time>
      </trkpt>
      <trkpt lat="45.04008" lon="3.88251">
        <ele>633</ele>
        <time>2020-09-06T11:26:36Z</time>
      </trkpt>
      <trkpt lat="45.03952" lon="3.88243">
        <ele>633</ele>
        <time>2020-09-06T11:27:51Z</time>
      </trkpt>
      <trkpt lat="45.03912" lon="3.88248">
        <ele>633</ele>
        <time>2020-09-06T11:28:45Z</time>
      </trkpt>
      <trkpt lat="45.03901" lon="3.88256">
        <ele>633</ele>
        <time>2020-09-06T11:29:01Z</time>
      </trkpt>
      <trkpt lat="45.03893" lon="3.88271">
        <ele>632</ele>
        <time>2020-09-06T11:29:19Z</time>
      </trkpt>
      <trkpt lat="45.03894" lon="3.88297">
        <ele>631</ele>
        <time>2020-09-06T11:29:43Z</time>
      </trkpt>
      <trkpt lat="45.03896" lon="3.88311">
        <ele>630</ele>
        <time>2020-09-06T11:29:57Z</time>
      </trkpt>
      <trkpt lat="45.03897" lon="3.88328">
        <ele>629</ele>
        <time>2020-09-06T11:30:13Z</time>
      </trkpt>
      <trkpt lat="45.03892" lon="3.88358">
        <ele>628</ele>
        <time>2020-09-06T11:30:42Z</time>
      </trkpt>
      <trkpt lat="45.03892" lon="3.88379">
        <ele>628</ele>
        <time>2020-09-06T11:31:02Z</time>
      </trkpt>
      <trkpt lat="45.03898" lon="3.88397">
        <ele>628</ele>
        <time>2020-09-06T11:31:21Z</time>
      </trkpt>
      <trkpt lat="45.03911" lon="3.88406">
        <ele>627</ele>
        <time>2020-09-06T11:31:40Z</time>
      </trkpt>
      <trkpt lat="45.0394" lon="3.88413">
        <ele>627</ele>
        <time>2020-09-06T11:32:19Z</time>
      </trkpt>
      <trkpt lat="45.03973" lon="3.88418">
        <ele>628</ele>
        <time>2020-09-06T11:33:04Z</time>
      </trkpt>
      <trkpt lat="45.03992" lon="3.88424">
        <ele>628</ele>
        <time>2020-09-06T11:33:29Z</time>
      </trkpt>
      <trkpt lat="45.04003" lon="3.8844">
        <ele>628</ele>
        <time>2020-09-06T11:33:51Z</time>
      </trkpt>
      <trkpt lat="45.04011" lon="3.88462">
        <ele>627</ele>
        <time>2020-09-06T11:34:14Z</time>
      </trkpt>
      <trkpt lat="45.04087" lon="3.88477">
        <ele>626</ele>
        <time>2020-09-06T11:35:56Z</time>
      </trkpt>
      <trkpt lat="45.04093" lon="3.88479">
        <ele>626</ele>
        <time>2020-09-06T11:36:04Z</time>
      </trkpt>
      <trkpt lat="45.0409" lon="3.88508">
        <ele>625</ele>
        <time>2020-09-06T11:36:32Z</time>
      </trkpt>
      <trkpt lat="45.04089" lon="3.88533">
        <ele>625</ele>
        <time>2020-09-06T11:36:56Z</time>
      </trkpt>
      <trkpt lat="45.04154" lon="3.88558">
        <ele>625</ele>
        <time>2020-09-06T11:38:26Z</time>
      </trkpt>
    </trkseg>
  </trk>
</gpx>